createdAt,value
2018-10-05T00:01:12.000Z,12.97
2018-10-05T00:03:40.808Z,13.03
2018-10-05T00:06:09.730Z,12.92
2018-10-05T00:08:38.789Z,12.94
2018-10-05T00:11:07.901Z,12.90
2018-10-05T00:13:36.828Z,12.89
2018-10-05T00:16:05.761Z,12.87
2018-10-05T00:18:34.557Z,12.85
2018-10-05T00:21:03.836Z,12.82
2018-10-05T00:23:32.679Z,12.74
2018-10-05T00:26:01.694Z,12.74
2018-10-05T00:28:30.557Z,12.67
2018-10-05T00:30:59.733Z,12.69
2018-10-05T00:33:28.610Z,12.68
2018-10-05T00:35:57.495Z,12.79
2018-10-05T00:38:26.454Z,12.56
2018-10-05T00:40:58.376Z,12.54
2018-10-05T00:43:27.696Z,12.54
2018-10-05T00:45:56.578Z,12.58
2018-10-05T00:48:25.468Z,12.58
2018-10-05T00:50:54.326Z,12.51
2018-10-05T00:53:23.251Z,12.60
2018-10-05T00:55:52.093Z,12.61
2018-10-05T00:58:21.003Z,12.50
2018-10-05T01:00:49.931Z,12.48
2018-10-05T01:03:18.844Z,12.43
2018-10-05T01:05:47.714Z,12.35
2018-10-05T01:08:16.888Z,12.44
2018-10-05T01:10:45.745Z,12.32
2018-10-05T01:13:14.613Z,12.34
2018-10-05T01:15:43.614Z,12.30
2018-10-05T01:18:12.490Z,12.25
2018-10-05T01:20:41.602Z,12.31
2018-10-05T01:23:10.530Z,12.28
2018-10-05T01:25:39.358Z,12.19
2018-10-05T01:28:08.532Z,12.18
2018-10-05T01:30:37.451Z,12.10
2018-10-05T01:33:06.455Z,12.08
2018-10-05T01:35:35.344Z,12.05
2018-10-05T01:38:04.213Z,11.93
2018-10-05T01:40:33.192Z,11.99
2018-10-05T01:43:02.071Z,12.05
2018-10-05T01:45:30.972Z,11.91
2018-10-05T01:47:59.821Z,11.84
2018-10-05T01:50:28.687Z,11.83
2018-10-05T01:52:57.565Z,11.65
2018-10-05T01:55:26.467Z,11.69
2018-10-05T01:57:55.302Z,11.55
2018-10-05T02:00:24.190Z,11.33
2018-10-05T02:02:53.326Z,11.23
2018-10-05T02:05:22.334Z,11.28
2018-10-05T02:07:51.192Z,11.40
2018-10-05T02:10:20.210Z,11.48
2018-10-05T02:12:49.048Z,11.39
2018-10-05T02:15:18.025Z,11.30
2018-10-05T02:17:46.898Z,11.25
2018-10-05T02:20:15.811Z,11.27
2018-10-05T02:22:44.612Z,11.18
2018-10-05T02:25:13.439Z,11.10
2018-10-05T02:27:42.247Z,11.22
2018-10-05T02:30:11.157Z,11.18
2018-10-05T02:32:40.043Z,11.09
2018-10-05T02:35:08.972Z,10.96
2018-10-05T02:37:37.886Z,10.85
2018-10-05T02:40:06.764Z,10.78
2018-10-05T02:42:35.724Z,10.76
2018-10-05T02:45:04.710Z,10.70
2018-10-05T02:47:33.619Z,10.65
2018-10-05T02:50:02.478Z,10.64
2018-10-05T02:52:31.332Z,10.69
2018-10-05T02:55:00.244Z,10.56
2018-10-05T02:57:29.095Z,10.61
2018-10-05T02:59:57.872Z,10.57
2018-10-05T03:02:32.732Z,10.51
2018-10-05T03:05:01.804Z,10.56
2018-10-05T03:07:31.623Z,10.55
2018-10-05T03:10:01.459Z,10.53
2018-10-05T03:12:30.288Z,10.61
2018-10-05T03:14:59.077Z,10.52
2018-10-05T03:17:28.042Z,10.51
2018-10-05T03:19:57.320Z,10.42
2018-10-05T03:22:26.183Z,10.49
2018-10-05T03:24:54.976Z,10.44
2018-10-05T03:27:23.859Z,10.40
2018-10-05T03:29:52.840Z,10.44
2018-10-05T03:32:21.680Z,10.38
2018-10-05T03:34:50.544Z,10.43
2018-10-05T03:37:19.393Z,10.42
2018-10-05T03:39:48.239Z,10.36
2018-10-05T03:42:17.136Z,10.30
2018-10-05T03:44:46.049Z,10.33
2018-10-05T03:47:14.887Z,10.37
2018-10-05T03:49:43.773Z,10.29
2018-10-05T03:52:12.652Z,10.32
2018-10-05T03:54:41.540Z,10.37
2018-10-05T03:57:10.663Z,10.51
2018-10-05T03:59:39.573Z,10.46
2018-10-05T04:02:08.420Z,10.46
2018-10-05T04:04:37.305Z,10.25
2018-10-05T04:07:06.369Z,10.30
2018-10-05T04:09:35.269Z,10.28
2018-10-05T04:12:04.166Z,10.30
2018-10-05T04:14:33.024Z,10.17
2018-10-05T04:17:01.850Z,10.06
2018-10-05T04:19:30.948Z,10.12
2018-10-05T04:21:59.812Z,10.05
2018-10-05T04:24:28.675Z,10.04
2018-10-05T04:26:57.565Z,9.98
2018-10-05T04:29:26.420Z,9.96
2018-10-05T04:31:55.528Z,9.94
2018-10-05T04:34:24.367Z,9.76
2018-10-05T04:36:53.229Z,9.82
2018-10-05T04:39:22.137Z,9.75
2018-10-05T04:41:51.131Z,9.70
2018-10-05T04:44:19.997Z,9.64
2018-10-05T04:46:48.925Z,9.60
2018-10-05T04:49:17.760Z,9.49
2018-10-05T04:51:46.665Z,9.62
2018-10-05T04:54:15.548Z,9.58
2018-10-05T04:56:44.825Z,9.63
2018-10-05T04:59:13.647Z,9.42
2018-10-05T05:01:43.008Z,9.32
2018-10-05T05:04:11.833Z,9.27
2018-10-05T05:06:40.757Z,9.17
2018-10-05T05:09:10.042Z,9.11
2018-10-05T05:11:38.954Z,9.05
2018-10-05T05:14:07.957Z,9.01
2018-10-05T05:16:36.801Z,9.05
2018-10-05T05:19:06.311Z,9.18
2018-10-05T05:21:35.332Z,9.42
2018-10-05T05:24:04.200Z,9.33
2018-10-05T05:26:33.056Z,9.44
2018-10-05T05:29:01.937Z,9.43
2018-10-05T05:31:30.780Z,9.62
2018-10-05T05:33:59.773Z,9.65
2018-10-05T05:36:28.612Z,9.47
2018-10-05T05:38:57.489Z,9.48
2018-10-05T05:41:26.314Z,9.50
2018-10-05T05:43:55.208Z,9.56
2018-10-05T05:46:24.112Z,9.55
2018-10-05T05:48:53.037Z,9.58
2018-10-05T05:51:21.895Z,9.53
2018-10-05T05:53:50.864Z,9.33
2018-10-05T05:56:19.684Z,9.43
2018-10-05T05:58:48.654Z,9.37
2018-10-05T06:01:17.538Z,9.31
2018-10-05T06:03:46.424Z,9.32
2018-10-05T06:06:15.326Z,9.38
2018-10-05T06:08:44.607Z,9.30
2018-10-05T06:11:13.868Z,9.30
2018-10-05T06:13:42.689Z,9.26
2018-10-05T06:16:11.665Z,9.47
2018-10-05T06:18:40.449Z,9.49
2018-10-05T06:21:09.347Z,9.71
2018-10-05T06:23:38.322Z,9.78
2018-10-05T06:26:07.256Z,9.94
2018-10-05T06:28:36.089Z,9.97
2018-10-05T06:31:05.054Z,9.76
2018-10-05T06:33:33.991Z,9.70
2018-10-05T06:36:02.958Z,9.66
2018-10-05T06:38:31.838Z,9.76
2018-10-05T06:41:00.781Z,9.86
2018-10-05T06:43:29.672Z,10.02
2018-10-05T06:45:58.567Z,10.06
2018-10-05T06:48:27.506Z,10.20
2018-10-05T06:50:56.472Z,10.20
2018-10-05T06:53:25.678Z,10.37
2018-10-05T06:55:54.586Z,10.45
2018-10-05T06:58:23.399Z,10.63
2018-10-05T07:00:52.416Z,10.81
2018-10-05T07:03:23.975Z,11.04
2018-10-05T07:05:53.462Z,11.11
2018-10-05T07:08:22.575Z,11.17
2018-10-05T07:10:51.557Z,11.39
2018-10-05T07:13:20.518Z,11.50
2018-10-05T07:15:49.343Z,11.51
2018-10-05T07:18:18.202Z,11.65
2018-10-05T07:20:47.100Z,11.75
2018-10-05T07:23:15.944Z,12.02
2018-10-05T07:25:45.472Z,12.05
2018-10-05T07:28:14.403Z,12.26
2018-10-05T07:30:43.263Z,12.17
2018-10-05T07:33:12.131Z,12.33
2018-10-05T07:35:41.006Z,12.41
2018-10-05T07:38:09.975Z,12.65
2018-10-05T07:40:38.830Z,12.64
2018-10-05T07:43:07.764Z,12.70
2018-10-05T07:45:36.570Z,12.85
2018-10-05T07:48:05.567Z,12.97
2018-10-05T07:50:34.533Z,13.05
2018-10-05T07:53:03.665Z,13.21
2018-10-05T07:55:32.532Z,13.34
2018-10-05T07:58:02.049Z,13.53
2018-10-05T08:00:30.893Z,13.52
2018-10-05T08:02:59.854Z,13.71
2018-10-05T08:05:28.665Z,13.91
2018-10-05T08:07:57.645Z,13.95
2018-10-05T08:10:26.538Z,14.01
2018-10-05T08:12:55.404Z,14.12
2018-10-05T08:15:24.392Z,14.30
2018-10-05T08:17:53.235Z,14.44
2018-10-05T08:20:22.215Z,14.18
2018-10-05T08:22:51.131Z,14.71
2018-10-05T08:25:20.057Z,14.77
2018-10-05T08:27:48.981Z,14.37
2018-10-05T08:30:17.856Z,14.64
2018-10-05T08:32:46.694Z,14.70
2018-10-05T08:35:15.609Z,14.77
2018-10-05T08:37:44.437Z,14.78
2018-10-05T08:40:13.399Z,15.02
2018-10-05T08:42:42.228Z,15.10
2018-10-05T08:45:11.176Z,14.90
2018-10-05T08:47:40.103Z,15.11
2018-10-05T08:50:09.038Z,15.33
2018-10-05T08:52:38.011Z,15.24
2018-10-05T08:55:07.061Z,15.27
2018-10-05T08:57:35.890Z,15.29
2018-10-05T09:00:05.376Z,15.50
2018-10-05T09:02:34.300Z,15.39
2018-10-05T09:05:03.379Z,15.49
2018-10-05T09:07:32.193Z,15.51
2018-10-05T09:10:00.969Z,15.50
2018-10-05T09:12:29.857Z,15.70
2018-10-05T09:14:59.017Z,15.75
2018-10-05T09:17:28.037Z,15.62
2018-10-05T09:19:56.890Z,15.80
2018-10-05T09:22:25.857Z,15.89
2018-10-05T09:24:55.161Z,15.91
2018-10-05T09:27:24.053Z,15.84
2018-10-05T09:29:52.962Z,16.03
2018-10-05T09:32:22.072Z,15.96
2018-10-05T09:34:50.903Z,16.11
2018-10-05T09:37:19.976Z,16.05
2018-10-05T09:39:49.075Z,16.12
2018-10-05T09:42:18.080Z,16.17
2018-10-05T09:44:46.965Z,16.20
2018-10-05T09:47:15.928Z,16.35
2018-10-05T09:49:44.734Z,16.42
2018-10-05T09:52:14.006Z,16.35
2018-10-05T09:54:43.143Z,16.50
2018-10-05T09:57:12.020Z,16.60
2018-10-05T09:59:41.256Z,16.66
2018-10-05T10:02:22.652Z,16.74
2018-10-05T10:04:51.578Z,16.71
2018-10-05T10:07:20.470Z,16.76
2018-10-05T10:09:49.342Z,16.85
2018-10-05T10:12:18.585Z,16.87
2018-10-05T10:14:47.500Z,16.86
2018-10-05T10:17:16.407Z,17.18
2018-10-05T10:19:45.237Z,17.16
2018-10-05T10:22:14.105Z,17.18
2018-10-05T10:24:43.009Z,17.16
2018-10-05T10:27:11.865Z,17.33
2018-10-05T10:29:40.788Z,17.54
2018-10-05T10:32:09.633Z,17.41
2018-10-05T10:34:38.521Z,17.51
2018-10-05T10:37:07.340Z,17.66
2018-10-05T10:39:36.220Z,17.68
2018-10-05T10:42:05.088Z,17.68
2018-10-05T10:44:33.940Z,17.75
2018-10-05T10:47:02.841Z,17.90
2018-10-05T10:49:31.698Z,17.83
2018-10-05T10:52:00.710Z,17.90
2018-10-05T10:54:29.715Z,17.89
2018-10-05T10:56:58.583Z,18.16
2018-10-05T10:59:27.445Z,18.18
2018-10-05T11:01:56.305Z,18.22
2018-10-05T11:04:25.543Z,18.09
2018-10-05T11:06:54.440Z,18.31
2018-10-05T11:09:23.313Z,18.49
2018-10-05T11:11:52.256Z,18.56
2018-10-05T11:14:21.120Z,18.59
2018-10-05T11:16:50.047Z,18.62
2018-10-05T11:19:18.965Z,18.61
2018-10-05T11:21:48.207Z,18.62
2018-10-05T11:24:17.024Z,18.88
2018-10-05T11:26:46.109Z,18.83
2018-10-05T11:29:14.971Z,18.95
2018-10-05T11:31:43.899Z,18.94
2018-10-05T11:34:12.721Z,18.98
2018-10-05T11:36:41.745Z,19.10
2018-10-05T11:39:10.592Z,19.11
2018-10-05T11:41:39.474Z,19.12
2018-10-05T11:44:08.350Z,19.22
2018-10-05T11:46:37.220Z,19.19
2018-10-05T11:49:06.224Z,19.13
2018-10-05T11:51:35.121Z,19.28
2018-10-05T11:54:04.036Z,19.17
2018-10-05T11:56:33.091Z,19.22
2018-10-05T11:59:01.915Z,19.25
2018-10-05T12:01:30.844Z,19.35
2018-10-05T12:03:59.684Z,19.41
2018-10-05T12:06:28.545Z,19.43
2018-10-05T12:08:57.485Z,19.53
2018-10-05T12:11:26.477Z,19.51
2018-10-05T12:13:55.497Z,19.46
2018-10-05T12:16:24.319Z,19.48
2018-10-05T12:18:53.196Z,19.50
2018-10-05T12:21:22.135Z,19.52
2018-10-05T12:23:51.060Z,19.72
2018-10-05T12:26:19.976Z,19.70
2018-10-05T12:28:48.889Z,19.45
2018-10-05T12:31:17.750Z,19.80
2018-10-05T12:33:46.777Z,19.72
2018-10-05T12:36:15.685Z,19.83
2018-10-05T12:38:44.632Z,19.72
2018-10-05T12:41:13.449Z,19.72
2018-10-05T12:43:42.619Z,19.64
2018-10-05T12:46:11.564Z,19.72
2018-10-05T12:48:40.476Z,19.83
2018-10-05T12:51:09.300Z,19.87
2018-10-05T12:53:38.116Z,19.84
2018-10-05T12:56:07.000Z,20.14
2018-10-05T12:58:35.911Z,20.12
2018-10-05T13:01:04.838Z,20.22
2018-10-05T13:03:33.764Z,20.19
2018-10-05T13:06:02.617Z,20.33
2018-10-05T13:08:31.435Z,20.23
2018-10-05T13:11:00.452Z,20.28
2018-10-05T13:13:29.315Z,20.42
2018-10-05T13:15:58.200Z,20.36
2018-10-05T13:18:27.029Z,20.49
2018-10-05T13:20:55.921Z,20.25
2018-10-05T13:23:24.792Z,20.31
2018-10-05T13:25:53.858Z,20.26
2018-10-05T13:28:22.810Z,20.41
2018-10-05T13:30:51.627Z,20.40
2018-10-05T13:33:20.424Z,20.36
2018-10-05T13:35:49.396Z,20.48
2018-10-05T13:38:18.234Z,20.45
2018-10-05T13:40:47.102Z,20.50
2018-10-05T13:43:16.233Z,20.56
2018-10-05T13:45:45.091Z,20.46
2018-10-05T13:48:13.954Z,20.41
2018-10-05T13:50:42.924Z,20.53
2018-10-05T13:53:11.763Z,20.49
2018-10-05T13:55:40.654Z,20.37
2018-10-05T13:58:09.507Z,20.43
2018-10-05T14:00:38.403Z,20.44
2018-10-05T14:03:07.244Z,20.44
2018-10-05T14:05:36.045Z,20.56
2018-10-05T14:08:05.294Z,20.53
2018-10-05T14:10:34.098Z,20.60
2018-10-05T14:13:03.081Z,20.59
2018-10-05T14:15:31.933Z,20.48
2018-10-05T14:18:00.851Z,20.38
2018-10-05T14:20:29.669Z,20.39
2018-10-05T14:22:58.567Z,20.44
2018-10-05T14:25:27.539Z,20.51
2018-10-05T14:27:56.413Z,20.49
2018-10-05T14:30:25.257Z,20.34
2018-10-05T14:32:54.159Z,20.30
2018-10-05T14:35:23.003Z,20.20
2018-10-05T14:37:52.234Z,20.21
2018-10-05T14:40:21.014Z,20.14
2018-10-05T14:42:49.864Z,20.05
2018-10-05T14:45:18.693Z,20.07
2018-10-05T14:47:47.511Z,20.03
2018-10-05T14:50:16.401Z,19.95
2018-10-05T14:52:45.282Z,19.88
2018-10-05T14:55:14.093Z,19.87
2018-10-05T14:57:43.440Z,19.88
2018-10-05T15:00:12.247Z,19.80
2018-10-05T15:02:41.223Z,19.69
2018-10-05T15:05:10.431Z,19.59
2018-10-05T15:07:39.229Z,19.67
2018-10-05T15:10:08.181Z,19.64
2018-10-05T15:12:37.110Z,19.59
2018-10-05T15:15:06.802Z,19.43
2018-10-05T15:17:35.642Z,19.50
2018-10-05T15:20:04.917Z,19.37
2018-10-05T15:22:33.846Z,19.28
2018-10-05T15:25:02.707Z,19.32
2018-10-05T15:27:31.961Z,19.30
2018-10-05T15:30:00.836Z,19.28
2018-10-05T15:32:29.790Z,19.26
2018-10-05T15:34:58.639Z,19.07
2018-10-05T15:37:27.469Z,19.18
2018-10-05T15:39:56.430Z,19.15
2018-10-05T15:42:25.307Z,19.08
2018-10-05T15:44:54.175Z,18.93
2018-10-05T15:47:23.055Z,19.09
2018-10-05T15:49:51.926Z,18.99
2018-10-05T15:52:20.841Z,18.91
2018-10-05T15:54:49.674Z,18.94
2018-10-05T15:57:18.522Z,18.90
2018-10-05T15:59:47.371Z,18.76
2018-10-05T16:02:16.285Z,18.68
2018-10-05T16:04:45.209Z,18.60
2018-10-05T16:07:14.084Z,18.39
2018-10-05T16:09:42.987Z,18.35
2018-10-05T16:12:11.950Z,18.26
2018-10-05T16:14:40.807Z,18.09
2018-10-05T16:17:09.766Z,18.01
2018-10-05T16:19:38.644Z,17.89
2018-10-05T16:22:07.501Z,17.84
2018-10-05T16:24:39.361Z,17.78
2018-10-05T16:27:08.683Z,17.66
2018-10-05T16:29:37.883Z,17.53
2018-10-05T16:32:07.835Z,17.41
2018-10-05T16:34:36.689Z,17.34
2018-10-05T16:37:05.993Z,17.25
2018-10-05T16:39:35.111Z,17.17
2018-10-05T16:42:04.560Z,17.05
2018-10-05T16:44:33.443Z,16.95
2018-10-05T16:47:02.375Z,16.85
2018-10-05T16:49:31.212Z,16.74
2018-10-05T16:52:00.135Z,16.71
2018-10-05T16:54:29.017Z,16.58
2018-10-05T16:56:57.943Z,16.51
2018-10-05T16:59:26.810Z,16.41
2018-10-05T17:01:55.923Z,16.32
2018-10-05T17:04:24.931Z,16.23
2018-10-05T17:06:54.105Z,16.17
2018-10-05T17:09:23.000Z,16.07
2018-10-05T17:11:51.873Z,15.97
2018-10-05T17:14:20.735Z,15.89
2018-10-05T17:16:49.560Z,15.81
2018-10-05T17:19:18.481Z,15.73
2018-10-05T17:21:47.296Z,15.63
2018-10-05T17:24:16.178Z,15.62
2018-10-05T17:26:45.020Z,15.50
2018-10-05T17:29:14.216Z,15.41
2018-10-05T17:31:43.335Z,15.30
2018-10-05T17:34:12.290Z,15.31
2018-10-05T17:36:41.175Z,15.19
2018-10-05T17:39:10.644Z,15.10
2018-10-05T17:41:39.555Z,15.05
2018-10-05T17:44:08.731Z,15.01
2018-10-05T17:46:37.593Z,14.99
2018-10-05T17:49:07.073Z,14.95
2018-10-05T17:51:36.669Z,14.88
2018-10-05T17:54:05.652Z,14.85
2018-10-05T17:56:35.079Z,14.75
2018-10-05T17:59:03.888Z,14.66
2018-10-05T18:01:32.806Z,14.56
2018-10-05T18:04:01.745Z,14.53
2018-10-05T18:06:30.891Z,14.45
2018-10-05T18:08:59.853Z,14.46
2018-10-05T18:11:28.722Z,14.39
2018-10-05T18:13:58.241Z,14.30
2018-10-05T18:16:27.137Z,14.24
2018-10-05T18:18:55.963Z,14.21
2018-10-05T18:21:26.088Z,14.14
2018-10-05T18:23:55.396Z,14.16
2018-10-05T18:26:25.528Z,14.07
2018-10-05T18:28:54.400Z,13.97
2018-10-05T18:31:23.280Z,13.89
2018-10-05T18:33:52.798Z,13.83
2018-10-05T18:36:21.747Z,13.81
2018-10-05T18:38:50.561Z,13.73
2018-10-05T18:41:20.054Z,13.66
2018-10-05T18:43:48.835Z,13.61
2018-10-05T18:46:17.856Z,13.58
2018-10-05T18:48:46.677Z,13.48
2018-10-05T18:51:15.642Z,13.24
2018-10-05T18:53:45.132Z,13.26
2018-10-05T18:56:31.153Z,13.15
2018-10-05T18:58:59.988Z,13.01
2018-10-05T19:01:28.851Z,13.14
2018-10-05T19:03:57.757Z,13.00
2018-10-05T19:06:27.525Z,13.01
2018-10-05T19:08:56.808Z,12.95
2018-10-05T19:11:25.863Z,12.92
2018-10-05T19:13:55.337Z,12.85
2018-10-05T19:16:25.441Z,12.79
2018-10-05T19:18:55.330Z,12.73
2018-10-05T19:21:24.218Z,12.68
2018-10-05T19:23:53.204Z,12.68
2018-10-05T19:26:23.213Z,12.59
2018-10-05T19:28:51.935Z,12.55
2018-10-05T19:31:20.877Z,12.59
2018-10-05T19:33:49.717Z,12.55
2018-10-05T19:36:18.603Z,12.48
2018-10-05T19:38:48.278Z,12.46
2018-10-05T19:41:17.672Z,12.40
2018-10-05T19:43:46.692Z,12.38
2018-10-05T19:46:15.590Z,12.28
2018-10-05T19:48:44.552Z,12.26
2018-10-05T19:51:13.500Z,12.23
2018-10-05T19:53:42.531Z,12.20
2018-10-05T19:56:13.257Z,12.16
2018-10-05T19:58:42.202Z,12.15
2018-10-05T20:01:11.699Z,12.12
2018-10-05T20:03:40.584Z,12.10
2018-10-05T20:06:09.456Z,12.07
2018-10-05T20:08:38.321Z,12.02
2018-10-05T20:11:08.476Z,12.01
2018-10-05T20:13:37.439Z,11.99
2018-10-05T20:16:06.375Z,11.93
2018-10-05T20:18:35.284Z,11.89
2018-10-05T20:21:04.093Z,11.86
2018-10-05T20:23:33.341Z,11.84
2018-10-05T20:26:02.956Z,11.80
2018-10-05T20:28:32.161Z,11.74
2018-10-05T20:31:01.074Z,11.69
2018-10-05T20:33:30.125Z,11.66
2018-10-05T20:35:59.033Z,11.59
2018-10-05T20:38:27.961Z,11.57
2018-10-05T20:40:56.928Z,11.59
2018-10-05T20:43:25.733Z,11.49
2018-10-05T20:45:54.690Z,11.52
2018-10-05T20:48:23.500Z,11.45
2018-10-05T20:50:52.459Z,11.47
2018-10-05T20:53:21.294Z,11.48
2018-10-05T20:55:50.140Z,11.46
2018-10-05T20:58:19.036Z,11.45
2018-10-05T21:00:47.844Z,11.45
2018-10-05T21:03:16.801Z,11.41
2018-10-05T21:05:45.800Z,11.33
2018-10-05T21:08:15.760Z,11.31
2018-10-05T21:10:44.749Z,11.17
2018-10-05T21:13:13.730Z,11.11
2018-10-05T21:15:42.625Z,11.10
2018-10-05T21:18:11.500Z,11.01
2018-10-05T21:20:40.300Z,10.97
2018-10-05T21:23:09.176Z,10.92
2018-10-05T21:25:37.986Z,10.92
2018-10-05T21:28:07.545Z,10.87
2018-10-05T21:30:36.396Z,10.91
2018-10-05T21:33:05.364Z,10.89
2018-10-05T21:35:34.299Z,10.87
2018-10-05T21:38:03.248Z,10.84
2018-10-05T21:40:32.128Z,10.87
2018-10-05T21:43:01.277Z,11.02
2018-10-05T21:45:30.127Z,11.00
2018-10-05T21:47:59.051Z,10.99
2018-10-05T21:50:27.875Z,11.03
2018-10-05T21:52:56.923Z,11.05
2018-10-05T21:55:25.787Z,11.05
2018-10-05T21:57:54.620Z,11.06
2018-10-05T22:00:23.984Z,10.98
2018-10-05T22:02:52.906Z,11.01
2018-10-05T22:05:21.811Z,11.07
2018-10-05T22:07:50.695Z,11.00
2018-10-05T22:10:19.549Z,10.90
2018-10-05T22:12:48.484Z,10.92
2018-10-05T22:15:17.380Z,10.87
2018-10-05T22:17:46.342Z,10.77
2018-10-05T22:20:15.205Z,10.73
2018-10-05T22:22:44.022Z,10.66
2018-10-05T22:25:13.196Z,10.60
2018-10-05T22:27:42.003Z,10.67
2018-10-05T22:30:10.937Z,10.63
2018-10-05T22:32:39.758Z,10.59
2018-10-05T22:35:08.691Z,10.56
2018-10-05T22:37:37.615Z,10.55
2018-10-05T22:40:06.659Z,10.56
2018-10-05T22:42:35.528Z,10.56
2018-10-05T22:45:09.361Z,10.51
2018-10-05T22:47:38.264Z,10.48
2018-10-05T22:50:07.202Z,10.50
2018-10-05T22:52:36.139Z,10.48
2018-10-05T22:55:05.121Z,10.44
2018-10-05T22:57:33.944Z,10.45
2018-10-05T23:00:02.877Z,10.43
2018-10-05T23:02:31.741Z,10.44
2018-10-05T23:05:01.208Z,10.46
2018-10-05T23:07:30.066Z,10.48
2018-10-05T23:09:58.926Z,10.44
2018-10-05T23:12:27.862Z,10.40
2018-10-05T23:14:56.770Z,10.41
2018-10-05T23:17:25.733Z,10.43
2018-10-05T23:19:54.557Z,10.40
2018-10-05T23:22:23.418Z,10.39
2018-10-05T23:24:52.343Z,10.36
2018-10-05T23:27:21.224Z,10.33
2018-10-05T23:29:50.142Z,10.35
2018-10-05T23:32:19.027Z,10.33
2018-10-05T23:34:47.845Z,10.33
2018-10-05T23:37:16.799Z,10.29
2018-10-05T23:39:45.621Z,10.27
2018-10-05T23:42:14.568Z,10.23
2018-10-05T23:44:43.409Z,10.26
2018-10-05T23:47:12.351Z,10.24
2018-10-05T23:49:41.187Z,10.21
2018-10-05T23:52:52.107Z,10.18
2018-10-05T23:55:21.118Z,10.12
2018-10-05T23:57:50.058Z,10.12
